Time;durP1;ratioP1;P1;durP2;ratioP2;P2;SDS_P1;SDS_P2;PMS_P1;PMS_P2;Temp;Humidity;BMP_temperature;BMP_pressure;BME280_temperature;BME280_humidity;BME280_pressure;Samples;Min_cycle;Max_cycle;Signal;HPM_P1;HPM_P2
2023/12/11 00:01:05;;;;;;;38.03;6.13;;;;;;;;;;5016588;28;20202;-67
2023/12/11 00:03:30;;;;;;;33.97;7.90;;;;;;;;;;4998898;28;20821;-67
2023/12/11 00:05:56;;;;;;;31.73;6.53;;;;;;;;;;5003834;28;20215;-67
2023/12/11 00:08:21;;;;;;;36.40;6.27;;;;;;;;;;4999763;28;20237;-67
2023/12/11 00:10:46;;;;;;;44.47;8.60;;;;;;;;;;5006180;28;20203;-67
2023/12/11 00:13:11;;;;;;;40.53;7.70;;;;;;;;;;5007064;28;20684;-67
2023/12/11 00:15:37;;;;;;;27.63;6.57;;;;;;;;;;5005984;28;20289;-67
2023/12/11 00:18:02;;;;;;;30.80;6.33;;;;;;;;;;5007987;28;20658;-67
2023/12/11 00:20:27;;;;;;;35.40;7.27;;;;;;;;;;5010694;28;20199;-66
2023/12/11 00:22:52;;;;;;;45.40;7.43;;;;;;;;;;5011242;28;20171;-66
2023/12/11 00:25:18;;;;;;;37.10;6.27;;;;;;;;;;4999066;28;20183;-68
2023/12/11 00:27:43;;;;;;;28.30;5.77;;;;;;;;;;5014141;28;20186;-66
2023/12/11 00:30:09;;;;;;;48.07;6.67;;;;;;;;;;5003571;28;20208;-66
2023/12/11 00:32:34;;;;;;;32.90;5.17;;;;;;;;;;5003468;28;20325;-67
2023/12/11 00:34:59;;;;;;;39.33;6.17;;;;;;;;;;5011548;28;20229;-65
2023/12/11 00:37:25;;;;;;;41.90;6.10;;;;;;;;;;5009284;28;20185;-66
2023/12/11 00:39:50;;;;;;;35.63;7.57;;;;;;;;;;5006014;28;20221;-66
2023/12/11 00:42:15;;;;;;;34.73;6.70;;;;;;;;;;5009473;28;20548;-64
2023/12/11 00:44:40;;;;;;;30.73;5.67;;;;;;;;;;5007925;28;20671;-66
2023/12/11 00:47:06;;;;;;;41.77;8.07;;;;;;;;;;5006966;28;20179;-66
2023/12/11 00:49:31;;;;;;;36.03;6.73;;;;;;;;;;4999612;28;20246;-67
2023/12/11 00:51:57;;;;;;;31.47;6.27;;;;;;;;;;5004399;28;20197;-67
2023/12/11 00:54:22;;;;;;;34.50;5.50;;;;;;;;;;5007393;28;20729;-67
2023/12/11 00:56:47;;;;;;;30.97;5.90;;;;;;;;;;5011044;28;20183;-67
2023/12/11 00:59:13;;;;;;;24.63;5.80;;;;;;;;;;5005477;28;20694;-67
2023/12/11 01:01:38;;;;;;;29.07;5.80;;;;;;;;;;5004497;28;20199;-68
2023/12/11 01:04:03;;;;;;;31.00;7.13;;;;;;;;;;5011595;28;20183;-68
2023/12/11 01:06:28;;;;;;;29.93;6.37;;;;;;;;;;5003424;28;20175;-67
2023/12/11 01:08:54;;;;;;;29.53;6.03;;;;;;;;;;5004222;28;20222;-67
2023/12/11 01:11:19;;;;;;;35.57;6.80;;;;;;;;;;5005532;28;20206;-68
2023/12/11 01:13:44;;;;;;;41.10;7.87;;;;;;;;;;5010234;28;20265;-67
2023/12/11 01:16:09;;;;;;;30.23;5.90;;;;;;;;;;5007115;28;20682;-67
2023/12/11 01:18:35;;;;;;;31.30;5.97;;;;;;;;;;4997298;28;20175;-67
2023/12/11 01:21:00;;;;;;;22.90;5.83;;;;;;;;;;4998733;28;20194;-67
2023/12/11 01:23:25;;;;;;;28.00;5.67;;;;;;;;;;5000507;28;20179;-70
2023/12/11 01:25:50;;;;;;;28.53;6.53;;;;;;;;;;5010953;28;20205;-67
2023/12/11 01:28:16;;;;;;;35.13;6.60;;;;;;;;;;5000517;28;20179;-68
2023/12/11 01:30:41;;;;;;;21.13;4.93;;;;;;;;;;5009953;28;20681;-66
2023/12/11 01:33:06;;;;;;;33.83;7.40;;;;;;;;;;5008711;28;20555;-67
2023/12/11 01:35:34;;;;;;;45.03;8.23;;;;;;;;;;5008942;28;20222;-66
2023/12/11 01:37:59;;;;;;;24.97;5.70;;;;;;;;;;5000046;28;20170;-67
2023/12/11 01:40:25;;;;;;;51.53;6.53;;;;;;;;;;5002288;28;20591;-66
2023/12/11 01:42:50;;;;;;;31.50;5.23;;;;;;;;;;5007734;28;20266;-67
2023/12/11 01:45:16;;;;;;;25.60;5.57;;;;;;;;;;5007931;28;20211;-68
2023/12/11 01:47:41;;;;;;;32.53;5.23;;;;;;;;;;5013469;28;20179;-69
2023/12/11 01:50:07;;;;;;;22.17;5.87;;;;;;;;;;5006868;28;20191;-67
2023/12/11 01:52:32;;;;;;;18.93;4.27;;;;;;;;;;5005544;28;20195;-67
2023/12/11 01:54:57;;;;;;;33.77;5.07;;;;;;;;;;5004992;28;20207;-67
2023/12/11 01:57:23;;;;;;;31.83;4.80;;;;;;;;;;5009486;28;20182;-67
2023/12/11 01:59:48;;;;;;;20.43;5.20;;;;;;;;;;5017701;28;20203;-66
2023/12/11 02:02:13;;;;;;;28.70;5.53;;;;;;;;;;5011297;28;20171;-67
2023/12/11 02:04:39;;;;;;;28.53;5.20;;;;;;;;;;5013655;28;20179;-67
2023/12/11 02:07:04;;;;;;;29.07;5.90;;;;;;;;;;5012539;28;20183;-67
2023/12/11 02:09:30;;;;;;;25.60;4.93;;;;;;;;;;5012759;28;20240;-67
2023/12/11 02:11:58;;;;;;;36.00;6.03;;;;;;;;;;5011362;28;20179;-67
2023/12/11 02:14:23;;;;;;;33.47;4.63;;;;;;;;;;5005155;28;20190;-67
2023/12/11 02:16:49;;;;;;;23.87;4.63;;;;;;;;;;5009787;28;20183;-67
2023/12/11 02:19:14;;;;;;;22.20;3.97;;;;;;;;;;5004364;28;20179;-67
2023/12/11 02:21:40;;;;;;;24.53;4.37;;;;;;;;;;5009543;28;20213;-67
2023/12/11 02:24:08;;;;;;;42.70;5.87;;;;;;;;;;5013411;28;20186;-67
2023/12/11 02:26:33;;;;;;;35.33;5.70;;;;;;;;;;5013367;28;20191;-67
2023/12/11 02:28:58;;;;;;;34.37;5.53;;;;;;;;;;5012780;28;20178;-66
2023/12/11 02:31:23;;;;;;;31.63;6.07;;;;;;;;;;5012508;28;20697;-67
2023/12/11 02:33:49;;;;;;;22.30;4.80;;;;;;;;;;5012356;28;20183;-67
2023/12/11 02:36:14;;;;;;;24.23;5.17;;;;;;;;;;5011384;28;20211;-67
2023/12/11 02:38:39;;;;;;;29.27;5.03;;;;;;;;;;5004292;28;20269;-68
2023/12/11 02:41:05;;;;;;;18.97;4.97;;;;;;;;;;5004905;28;20211;-68
2023/12/11 02:43:30;;;;;;;19.63;4.63;;;;;;;;;;5012632;28;20215;-68
2023/12/11 02:45:55;;;;;;;27.23;5.37;;;;;;;;;;5010924;28;20182;-68
2023/12/11 02:48:20;;;;;;;26.10;5.07;;;;;;;;;;5013188;28;20183;-67
2023/12/11 02:50:46;;;;;;;28.60;5.00;;;;;;;;;;5012595;28;20331;-68
2023/12/11 02:53:11;;;;;;;23.83;4.43;;;;;;;;;;5011596;28;20175;-68
2023/12/11 02:55:36;;;;;;;41.43;5.43;;;;;;;;;;5009563;28;20202;-68
2023/12/11 02:58:03;;;;;;;28.67;6.47;;;;;;;;;;5003285;28;20279;-68
2023/12/11 03:00:29;;;;;;;23.67;5.57;;;;;;;;;;5004378;28;20238;-68
2023/12/11 03:02:54;;;;;;;35.37;4.97;;;;;;;;;;5006346;28;20664;-68
2023/12/11 03:05:19;;;;;;;20.47;4.83;;;;;;;;;;5005894;28;20178;-68
2023/12/11 03:07:44;;;;;;;29.80;5.07;;;;;;;;;;5012596;28;20197;-69
2023/12/11 03:10:10;;;;;;;32.77;6.30;;;;;;;;;;5011622;28;20199;-68
2023/12/11 03:12:35;;;;;;;42.77;6.17;;;;;;;;;;5010322;28;20658;-69
2023/12/11 03:15:00;;;;;;;27.70;6.23;;;;;;;;;;5011835;28;20199;-68
2023/12/11 03:17:26;;;;;;;28.87;5.50;;;;;;;;;;5013234;28;20577;-67
2023/12/11 03:19:52;;;;;;;21.47;6.50;;;;;;;;;;5001901;28;20194;-68
2023/12/11 03:22:17;;;;;;;34.33;7.67;;;;;;;;;;5008441;28;20175;-68
2023/12/11 03:24:42;;;;;;;41.30;6.23;;;;;;;;;;5010154;28;20179;-68
2023/12/11 03:27:07;;;;;;;35.07;5.80;;;;;;;;;;5013305;28;20193;-67
2023/12/11 03:29:33;;;;;;;31.77;5.77;;;;;;;;;;5011069;28;20178;-67
2023/12/11 03:31:58;;;;;;;30.17;7.27;;;;;;;;;;5012813;28;20557;-68
2023/12/11 03:34:23;;;;;;;24.30;5.30;;;;;;;;;;5010771;28;20174;-67
2023/12/11 03:36:48;;;;;;;29.10;6.00;;;;;;;;;;5010564;28;20202;-67
2023/12/11 03:39:14;;;;;;;33.43;5.60;;;;;;;;;;5008529;28;20183;-66
2023/12/11 03:41:39;;;;;;;38.73;7.43;;;;;;;;;;5005645;28;20276;-68
2023/12/11 03:44:04;;;;;;;36.53;6.63;;;;;;;;;;5010843;28;20642;-68
2023/12/11 03:46:30;;;;;;;33.17;5.80;;;;;;;;;;5004615;28;20194;-68
2023/12/11 03:48:55;;;;;;;30.73;5.80;;;;;;;;;;5012485;28;20172;-68
2023/12/11 03:51:20;;;;;;;30.13;4.53;;;;;;;;;;5012302;28;20705;-68
2023/12/11 03:53:45;;;;;;;23.93;4.47;;;;;;;;;;5013800;28;20174;-67
2023/12/11 03:56:11;;;;;;;31.50;5.93;;;;;;;;;;5010188;28;20689;-67
2023/12/11 03:58:36;;;;;;;26.60;6.17;;;;;;;;;;5000718;28;20188;-67
2023/12/11 04:01:01;;;;;;;35.93;5.43;;;;;;;;;;5011186;28;20198;-67
2023/12/11 04:03:26;;;;;;;36.30;4.90;;;;;;;;;;5009650;28;20270;-67
2023/12/11 04:05:52;;;;;;;27.00;6.00;;;;;;;;;;5009762;28;20187;-67
2023/12/11 04:08:17;;;;;;;35.87;5.57;;;;;;;;;;5011993;28;20704;-67
2023/12/11 04:10:42;;;;;;;24.70;4.40;;;;;;;;;;5011185;28;20262;-67
2023/12/11 04:13:07;;;;;;;25.37;4.97;;;;;;;;;;5007888;28;20179;-67
2023/12/11 04:15:33;;;;;;;28.17;5.80;;;;;;;;;;5005887;28;20219;-67
2023/12/11 04:17:58;;;;;;;26.07;6.10;;;;;;;;;;5005228;28;20175;-67
2023/12/11 04:20:24;;;;;;;18.27;4.63;;;;;;;;;;5004157;28;20199;-67
2023/12/11 04:22:49;;;;;;;21.00;5.13;;;;;;;;;;5006121;28;20290;-66
2023/12/11 04:25:14;;;;;;;28.50;5.87;;;;;;;;;;5009890;28;20281;-67
2023/12/11 04:27:39;;;;;;;25.53;6.07;;;;;;;;;;5010066;28;20190;-67
2023/12/11 04:30:05;;;;;;;30.27;5.73;;;;;;;;;;5010667;28;20222;-67
2023/12/11 04:32:30;;;;;;;26.23;5.30;;;;;;;;;;5010829;28;20210;-67
2023/12/11 04:34:55;;;;;;;32.10;5.53;;;;;;;;;;5011050;28;20293;-67
2023/12/11 04:37:20;;;;;;;33.27;7.53;;;;;;;;;;5009460;28;20210;-67
2023/12/11 04:39:46;;;;;;;26.97;5.90;;;;;;;;;;5000412;28;20237;-68
2023/12/11 04:42:11;;;;;;;36.60;5.73;;;;;;;;;;5006572;28;20182;-67
2023/12/11 04:44:36;;;;;;;28.30;6.33;;;;;;;;;;5008591;28;20178;-67
2023/12/11 04:47:02;;;;;;;33.28;5.97;;;;;;;;;;5007866;28;20183;-67
2023/12/11 04:49:27;;;;;;;26.30;6.00;;;;;;;;;;5005058;28;20663;-67
2023/12/11 04:51:52;;;;;;;26.00;5.23;;;;;;;;;;5009514;28;20268;-68
2023/12/11 04:54:17;;;;;;;23.40;5.83;;;;;;;;;;5011350;28;20194;-68
2023/12/11 04:56:43;;;;;;;31.50;5.63;;;;;;;;;;5004049;28;20183;-67
2023/12/11 04:59:08;;;;;;;29.63;6.57;;;;;;;;;;5001158;28;20425;-67
2023/12/11 05:01:33;;;;;;;27.83;4.93;;;;;;;;;;5005226;28;20203;-66
2023/12/11 05:03:58;;;;;;;30.63;6.83;;;;;;;;;;5011650;28;20183;-67
2023/12/11 05:06:24;;;;;;;23.10;4.77;;;;;;;;;;5006508;28;20202;-67
2023/12/11 05:08:49;;;;;;;25.80;5.80;;;;;;;;;;5008790;28;20175;-68
2023/12/11 05:11:14;;;;;;;22.47;3.73;;;;;;;;;;5009789;28;20666;-69
2023/12/11 05:13:39;;;;;;;21.73;5.23;;;;;;;;;;5007623;28;20183;-67
2023/12/11 05:16:05;;;;;;;21.97;4.50;;;;;;;;;;5002020;28;20580;-68
2023/12/11 05:18:30;;;;;;;28.40;5.07;;;;;;;;;;5001160;28;20172;-68
2023/12/11 05:20:56;;;;;;;35.23;5.60;;;;;;;;;;5005656;28;20581;-68
2023/12/11 05:23:21;;;;;;;19.23;5.10;;;;;;;;;;4999463;28;20175;-68
2023/12/11 05:25:46;;;;;;;25.60;4.90;;;;;;;;;;5008532;28;20551;-68
2023/12/11 05:28:12;;;;;;;20.30;4.27;;;;;;;;;;5005174;28;20174;-68
2023/12/11 05:30:37;;;;;;;17.80;4.87;;;;;;;;;;5010431;28;20241;-67
2023/12/11 05:33:02;;;;;;;30.10;3.90;;;;;;;;;;5008240;28;20179;-68
2023/12/11 05:35:27;;;;;;;18.05;4.57;;;;;;;;;;5010153;28;20205;-67
2023/12/11 05:37:55;;;;;;;22.80;4.93;;;;;;;;;;5007783;28;20261;-67
2023/12/11 05:40:20;;;;;;;18.40;3.90;;;;;;;;;;4999736;28;20301;-67
2023/12/11 05:42:46;;;;;;;28.27;4.50;;;;;;;;;;5007388;28;20265;-67
2023/12/11 05:45:11;;;;;;;29.43;6.93;;;;;;;;;;5008922;28;20178;-68
2023/12/11 05:47:37;;;;;;;22.17;4.03;;;;;;;;;;5006646;28;20188;-67
2023/12/11 05:50:02;;;;;;;13.57;4.37;;;;;;;;;;5007129;28;20206;-67
2023/12/11 05:52:27;;;;;;;16.20;3.87;;;;;;;;;;5010090;28;20171;-67
2023/12/11 05:54:52;;;;;;;31.57;5.10;;;;;;;;;;5009583;28;20195;-67
2023/12/11 05:57:17;;;;;;;22.03;4.73;;;;;;;;;;5001398;28;20618;-68
2023/12/11 05:59:43;;;;;;;18.60;4.33;;;;;;;;;;5009854;28;20170;-67
2023/12/11 06:02:08;;;;;;;25.67;3.90;;;;;;;;;;5009367;28;20171;-67
2023/12/11 06:04:33;;;;;;;13.30;3.27;;;;;;;;;;5009897;28;20591;-68
2023/12/11 06:06:58;;;;;;;23.57;4.17;;;;;;;;;;5009189;28;20175;-67
2023/12/11 06:09:24;;;;;;;15.37;4.13;;;;;;;;;;5008223;28;20178;-68
2023/12/11 06:11:49;;;;;;;16.20;3.93;;;;;;;;;;5007432;28;20198;-68
2023/12/11 06:14:14;;;;;;;20.97;4.37;;;;;;;;;;5005259;28;20172;-68
2023/12/11 06:16:41;;;;;;;17.83;3.37;;;;;;;;;;5007612;28;20207;-68
2023/12/11 06:19:06;;;;;;;15.27;3.40;;;;;;;;;;5003648;28;20186;-67
2023/12/11 06:21:31;;;;;;;19.73;4.20;;;;;;;;;;5007909;28;20572;-67
2023/12/11 06:23:57;;;;;;;14.90;3.40;;;;;;;;;;5005498;28;20218;-67
2023/12/11 06:26:28;;;;;;;23.47;3.07;;;;;;;;;;5007529;28;20183;-68
2023/12/11 06:28:53;;;;;;;18.43;3.27;;;;;;;;;;5009863;28;20698;-68
2023/12/11 06:31:18;;;;;;;16.73;2.77;;;;;;;;;;5010949;28;20289;-68
2023/12/11 06:33:43;;;;;;;19.00;3.00;;;;;;;;;;5013003;28;20193;-68
2023/12/11 06:36:09;;;;;;;17.90;3.77;;;;;;;;;;5012314;28;20207;-68
2023/12/11 06:38:34;;;;;;;17.40;3.47;;;;;;;;;;5013070;28;20199;-68
2023/12/11 06:40:59;;;;;;;14.00;2.93;;;;;;;;;;5016286;22;20247;-65
2023/12/11 06:43:25;;;;;;;20.67;4.00;;;;;;;;;;4991140;28;20639;-64
2023/12/11 06:45:50;;;;;;;11.53;3.67;;;;;;;;;;4991651;28;20234;-65
2023/12/11 06:48:15;;;;;;;16.17;3.20;;;;;;;;;;4990773;28;20182;-65
2023/12/11 06:50:41;;;;;;;18.07;3.67;;;;;;;;;;4994801;28;20218;-64
2023/12/11 06:53:06;;;;;;;10.87;3.10;;;;;;;;;;4992260;28;20180;-65
2023/12/11 06:55:31;;;;;;;14.27;2.80;;;;;;;;;;4993178;28;20216;-64
2023/12/11 06:57:56;;;;;;;12.07;2.43;;;;;;;;;;4992556;28;20566;-64
2023/12/11 07:00:22;;;;;;;18.57;2.63;;;;;;;;;;4985677;28;20207;-64
2023/12/11 07:02:47;;;;;;;14.27;3.83;;;;;;;;;;4992455;28;20262;-66
2023/12/11 07:05:12;;;;;;;28.83;3.93;;;;;;;;;;4985104;28;20246;-65
2023/12/11 07:07:37;;;;;;;17.40;4.13;;;;;;;;;;4991021;28;20222;-65
2023/12/11 07:10:05;;;;;;;12.73;2.63;;;;;;;;;;4993358;28;20199;-65
2023/12/11 07:12:30;;;;;;;7.47;2.43;;;;;;;;;;4989460;28;20302;-64
2023/12/11 07:14:56;;;;;;;9.90;2.57;;;;;;;;;;4989283;28;20298;-65
2023/12/11 07:17:21;;;;;;;17.33;2.73;;;;;;;;;;4992173;28;20179;-65
2023/12/11 07:19:46;;;;;;;15.00;1.93;;;;;;;;;;4992706;28;20182;-65
2023/12/11 07:22:12;;;;;;;16.20;3.37;;;;;;;;;;4992104;28;20211;-66
2023/12/11 07:24:37;;;;;;;8.20;2.53;;;;;;;;;;4981838;28;20790;-65
2023/12/11 07:27:02;;;;;;;21.80;2.77;;;;;;;;;;4989989;28;20250;-65
2023/12/11 07:29:27;;;;;;;15.23;3.90;;;;;;;;;;4993783;28;20180;-65
2023/12/11 07:31:53;;;;;;;9.90;2.73;;;;;;;;;;4990860;28;20211;-65
2023/12/11 07:34:21;;;;;;;14.17;2.87;;;;;;;;;;4990930;28;20497;-65
2023/12/11 07:36:47;;;;;;;7.20;2.10;;;;;;;;;;4992628;28;20196;-65
2023/12/11 07:39:12;;;;;;;10.90;1.80;;;;;;;;;;4992255;28;20901;-65
2023/12/11 07:41:37;;;;;;;8.20;2.67;;;;;;;;;;4991112;28;20211;-65
2023/12/11 07:44:02;;;;;;;8.80;2.40;;;;;;;;;;4982575;28;20180;-66
2023/12/11 07:46:27;;;;;;;8.10;2.50;;;;;;;;;;4984290;28;20695;-65
2023/12/11 07:48:53;;;;;;;11.30;2.80;;;;;;;;;;4987396;28;20194;-66
2023/12/11 07:51:19;;;;;;;13.73;3.27;;;;;;;;;;4988046;28;20230;-66
2023/12/11 07:53:45;;;;;;;12.20;2.20;;;;;;;;;;4990584;28;20249;-65
2023/12/11 07:56:20;;;;;;;11.77;1.97;;;;;;;;;;4992744;28;20224;-65
2023/12/11 07:58:45;;;;;;;11.77;2.97;;;;;;;;;;4987124;28;20253;-65
2023/12/11 08:01:10;;;;;;;22.67;3.13;;;;;;;;;;4983890;28;20203;-65
2023/12/11 08:03:36;;;;;;;9.00;2.87;;;;;;;;;;4988803;28;20214;-66
2023/12/11 08:06:01;;;;;;;7.43;2.00;;;;;;;;;;4991309;28;20187;-65
2023/12/11 08:08:26;;;;;;;12.63;3.00;;;;;;;;;;4988701;28;20186;-66
2023/12/11 08:10:52;;;;;;;12.33;2.67;;;;;;;;;;4992609;28;20211;-65
2023/12/11 08:13:17;;;;;;;9.13;2.37;;;;;;;;;;4990670;28;20245;-65
2023/12/11 08:15:42;;;;;;;7.47;2.27;;;;;;;;;;4991177;28;20286;-66
2023/12/11 08:18:07;;;;;;;6.53;1.97;;;;;;;;;;4991238;28;20559;-65
2023/12/11 08:20:33;;;;;;;8.57;2.37;;;;;;;;;;4983013;28;20211;-65
2023/12/11 08:22:58;;;;;;;5.50;2.47;;;;;;;;;;4986834;28;20221;-65
2023/12/11 08:25:23;;;;;;;10.63;2.40;;;;;;;;;;4984144;28;20206;-66
2023/12/11 08:27:48;;;;;;;10.63;2.97;;;;;;;;;;4991027;28;20182;-65
2023/12/11 08:30:13;;;;;;;8.93;3.20;;;;;;;;;;4991475;28;20195;-65
2023/12/11 08:32:39;;;;;;;8.57;2.43;;;;;;;;;;4991072;28;20238;-65
2023/12/11 08:35:04;;;;;;;7.03;1.97;;;;;;;;;;4988793;28;20196;-66
2023/12/11 08:37:30;;;;;;;10.90;2.87;;;;;;;;;;4990581;28;20180;-65
2023/12/11 08:39:55;;;;;;;7.10;2.20;;;;;;;;;;4991018;28;20184;-66
2023/12/11 08:42:20;;;;;;;5.30;2.10;;;;;;;;;;4987832;28;20176;-67
2023/12/11 08:44:45;;;;;;;13.27;2.43;;;;;;;;;;4983471;28;20187;-66
2023/12/11 08:47:11;;;;;;;6.20;2.10;;;;;;;;;;4988889;28;20183;-66
2023/12/11 08:49:36;;;;;;;12.30;3.33;;;;;;;;;;4991576;28;20183;-66
2023/12/11 08:52:02;;;;;;;6.10;1.90;;;;;;;;;;4991265;28;20286;-66
2023/12/11 08:54:27;;;;;;;4.53;1.67;;;;;;;;;;4991580;28;20562;-66
2023/12/11 08:56:53;;;;;;;10.67;2.63;;;;;;;;;;4992004;28;20211;-66
2023/12/11 08:59:18;;;;;;;8.60;2.30;;;;;;;;;;4989606;28;20245;-66
2023/12/11 09:01:43;;;;;;;10.60;2.33;;;;;;;;;;4996191;28;20203;-67
2023/12/11 09:04:08;;;;;;;6.00;1.53;;;;;;;;;;5000100;28;20172;-66
2023/12/11 09:06:34;;;;;;;10.90;3.17;;;;;;;;;;5004652;28;20179;-66
2023/12/11 09:08:59;;;;;;;6.93;2.07;;;;;;;;;;5006168;28;20180;-65
2023/12/11 09:11:25;;;;;;;6.20;1.60;;;;;;;;;;4991881;28;20219;-66
2023/12/11 09:13:50;;;;;;;10.20;2.55;;;;;;;;;;4990581;28;20187;-66
2023/12/11 09:16:16;;;;;;;7.70;1.97;;;;;;;;;;4991441;28;20199;-66
2023/12/11 09:18:41;;;;;;;10.97;1.90;;;;;;;;;;4991649;28;20172;-66
2023/12/11 09:21:06;;;;;;;12.97;2.23;;;;;;;;;;4977113;28;20667;-66
2023/12/11 09:23:31;;;;;;;9.80;2.67;;;;;;;;;;4989799;28;20231;-66
2023/12/11 09:25:57;;;;;;;8.00;2.23;;;;;;;;;;4983496;28;20186;-66
2023/12/11 09:28:22;;;;;;;10.53;2.37;;;;;;;;;;4990567;28;20191;-66
2023/12/11 09:30:48;;;;;;;10.47;3.00;;;;;;;;;;4992952;28;20258;-66
2023/12/11 09:33:13;;;;;;;14.57;3.03;;;;;;;;;;4997718;28;20273;-66
2023/12/11 09:35:39;;;;;;;6.60;1.97;;;;;;;;;;5004664;28;20234;-66
2023/12/11 09:38:04;;;;;;;7.50;2.50;;;;;;;;;;4998266;28;20190;-66
2023/12/11 09:40:29;;;;;;;9.23;2.50;;;;;;;;;;4991390;28;20583;-66
2023/12/11 09:42:54;;;;;;;8.63;2.77;;;;;;;;;;4990903;28;20175;-66
2023/12/11 09:45:21;;;;;;;8.73;2.57;;;;;;;;;;4976226;28;20646;-66
2023/12/11 09:47:49;;;;;;;8.80;2.37;;;;;;;;;;4988083;28;20175;-66
2023/12/11 09:50:15;;;;;;;7.17;2.53;;;;;;;;;;4990141;28;20214;-66
2023/12/11 09:52:40;;;;;;;7.57;2.70;;;;;;;;;;4991756;28;20179;-66
2023/12/11 09:55:06;;;;;;;6.80;2.47;;;;;;;;;;4993813;28;20250;-66
2023/12/11 09:57:32;;;;;;;7.70;2.57;;;;;;;;;;4989786;28;20271;-66
2023/12/11 09:59:57;;;;;;;13.37;3.20;;;;;;;;;;4990313;28;20180;-66
2023/12/11 10:02:25;;;;;;;11.45;2.53;;;;;;;;;;4992615;28;20176;-66
2023/12/11 10:05:04;;;;;;;12.33;3.23;;;;;;;;;;4989346;28;20540;-66
2023/12/11 10:07:32;;;;;;;6.43;2.60;;;;;;;;;;4993403;28;20643;-66
2023/12/11 10:09:58;;;;;;;10.27;1.85;;;;;;;;;;4994804;28;20548;-66
2023/12/11 10:12:23;;;;;;;7.55;2.53;;;;;;;;;;4992410;28;20238;-66
2023/12/11 10:15:07;;;;;;;13.00;2.73;;;;;;;;;;4993568;28;20287;-66
2023/12/11 10:17:32;;;;;;;12.93;2.03;;;;;;;;;;4993463;28;20183;-66
2023/12/11 10:19:57;;;;;;;6.33;1.73;;;;;;;;;;4994494;28;20233;-66
2023/12/11 10:22:30;;;;;;;9.03;2.20;;;;;;;;;;4987210;28;20175;-66
2023/12/11 10:24:55;;;;;;;10.43;2.37;;;;;;;;;;4991690;28;20218;-66
2023/12/11 10:27:21;;;;;;;8.23;2.00;;;;;;;;;;4985431;28;20211;-66
2023/12/11 10:29:46;;;;;;;9.90;2.70;;;;;;;;;;4992173;28;20722;-66
2023/12/11 10:32:12;;;;;;;9.98;3.03;;;;;;;;;;4994285;28;20270;-66
2023/12/11 10:34:42;;;;;;;10.70;2.33;;;;;;;;;;4993502;28;20230;-66
2023/12/11 10:37:08;;;;;;;9.27;1.95;;;;;;;;;;4992966;28;20556;-66
2023/12/11 10:39:34;;;;;;;4.40;2.17;;;;;;;;;;4994330;28;20717;-66
2023/12/11 10:42:11;;;;;;;11.63;2.10;;;;;;;;;;4991704;28;20215;-66
2023/12/11 10:44:36;;;;;;;11.75;2.58;;;;;;;;;;4994056;28;20188;-66
2023/12/11 10:47:02;;;;;;;6.77;1.93;;;;;;;;;;4988370;28;20183;-66
2023/12/11 10:49:27;;;;;;;3.57;1.73;;;;;;;;;;4987174;28;20529;-66
2023/12/11 10:51:52;;;;;;;5.73;1.73;;;;;;;;;;4994740;28;20200;-66
2023/12/11 10:54:19;;;;;;;9.30;1.70;;;;;;;;;;4993836;28;20647;-66
2023/12/11 10:56:46;;;;;;;6.47;1.45;;;;;;;;;;4993749;28;20219;-66
2023/12/11 10:59:11;;;;;;;7.17;1.70;;;;;;;;;;4991001;28;20188;-66
2023/12/11 11:01:38;;;;;;;8.27;1.80;;;;;;;;;;4992774;28;20206;-66
2023/12/11 11:04:04;;;;;;;7.37;3.13;;;;;;;;;;4986515;28;20188;-66
2023/12/11 11:06:31;;;;;;;11.30;2.63;;;;;;;;;;4990976;28;20214;-66
2023/12/11 11:09:04;;;;;;;6.30;2.22;;;;;;;;;;4993678;28;20172;-66
2023/12/11 11:11:32;;;;;;;8.87;3.00;;;;;;;;;;4993260;28;20671;-66
2023/12/11 11:14:16;;;;;;;7.57;2.83;;;;;;;;;;4991322;28;20192;-66
2023/12/11 11:16:51;;;;;;;13.87;3.03;;;;;;;;;;4993290;28;20203;-66
2023/12/11 11:19:16;;;;;;;11.40;2.55;;;;;;;;;;4987147;28;20179;-67
2023/12/11 11:21:57;;;;;;;6.07;2.47;;;;;;;;;;4987809;28;20206;-67
2023/12/11 11:24:26;;;;;;;7.82;3.22;;;;;;;;;;4987622;28;20259;-67
2023/12/11 11:26:51;;;;;;;4.88;2.15;;;;;;;;;;4980384;28;20687;-67
2023/12/11 11:29:36;;;;;;;6.30;1.65;;;;;;;;;;4979449;28;20192;-67
2023/12/11 11:32:02;;;;;;;8.20;2.67;;;;;;;;;;4990244;28;20207;-67
2023/12/11 11:34:43;;;;;;;9.35;1.60;;;;;;;;;;4988124;28;20207;-67
2023/12/11 11:37:34;;;;;;;13.13;3.25;;;;;;;;;;4987246;28;20179;-66
2023/12/11 11:40:04;;;;;;;6.45;1.67;;;;;;;;;;4990057;28;20187;-66
2023/12/11 11:42:33;;;;;;;6.97;1.55;;;;;;;;;;4988024;28;20177;-67
2023/12/11 11:44:59;;;;;;;8.32;2.00;;;;;;;;;;4993241;28;20187;-67
2023/12/11 11:47:24;;;;;;;4.32;1.70;;;;;;;;;;4986035;28;20214;-67
2023/12/11 11:49:50;;;;;;;5.60;1.83;;;;;;;;;;4990285;28;20254;-66
2023/12/11 11:52:19;;;;;;;4.95;1.50;;;;;;;;;;4992811;28;20176;-67
2023/12/11 11:54:44;;;;;;;6.82;1.58;;;;;;;;;;4990176;28;20207;-67
2023/12/11 11:57:09;;;;;;;6.65;1.58;;;;;;;;;;4991694;28;20647;-67
2023/12/11 11:59:42;;;;;;;7.05;1.73;;;;;;;;;;4986014;28;20176;-67
2023/12/11 12:02:07;;;;;;;5.05;1.80;;;;;;;;;;4985566;28;20672;-67
2023/12/11 12:04:33;;;;;;;7.17;1.40;;;;;;;;;;4991492;28;20615;-67
2023/12/11 12:07:00;;;;;;;2.63;1.10;;;;;;;;;;4992282;28;20179;-67
2023/12/11 12:09:25;;;;;;;7.10;1.45;;;;;;;;;;4988309;28;20178;-67
2023/12/11 12:11:51;;;;;;;4.20;1.55;;;;;;;;;;4990512;28;20287;-67
2023/12/11 12:14:16;;;;;;;6.30;1.65;;;;;;;;;;4992581;28;20526;-67
2023/12/11 12:16:41;;;;;;;7.00;1.55;;;;;;;;;;4991838;28;20203;-67
2023/12/11 12:19:06;;;;;;;5.05;1.80;;;;;;;;;;4987193;28;20640;-67
2023/12/11 12:21:44;;;;;;;6.03;1.40;;;;;;;;;;4991919;28;20203;-67
2023/12/11 12:24:10;;;;;;;5.40;1.48;;;;;;;;;;4983596;28;20176;-67
2023/12/11 12:26:35;;;;;;;6.47;1.50;;;;;;;;;;4982613;28;20253;-67
2023/12/11 12:29:01;;;;;;;9.80;1.80;;;;;;;;;;4992108;28;20176;-66
2023/12/11 12:31:26;;;;;;;8.77;1.90;;;;;;;;;;4991328;28;20231;-67
2023/12/11 12:33:51;;;;;;;6.50;2.10;;;;;;;;;;4992207;28;20183;-67
2023/12/11 12:36:18;;;;;;;7.32;1.83;;;;;;;;;;4992109;28;20210;-67
2023/12/11 12:38:43;;;;;;;9.90;2.10;;;;;;;;;;4991150;28;20266;-67
2023/12/11 12:41:11;;;;;;;7.13;2.78;;;;;;;;;;4990696;28;20692;-67
2023/12/11 12:43:36;;;;;;;10.73;2.85;;;;;;;;;;4988721;28;20222;-67
2023/12/11 12:46:02;;;;;;;10.60;2.17;;;;;;;;;;4991391;28;20552;-67
2023/12/11 12:48:28;;;;;;;6.65;2.38;;;;;;;;;;4991515;28;20172;-66
2023/12/11 12:51:13;;;;;;;8.18;2.30;;;;;;;;;;4991597;28;20623;-66
2023/12/11 12:53:45;;;;;;;6.43;2.60;;;;;;;;;;4990793;28;20207;-66
2023/12/11 12:56:20;;;;;;;6.75;1.88;;;;;;;;;;4991094;28;20241;-67
2023/12/11 12:58:45;;;;;;;6.38;2.20;;;;;;;;;;4990313;28;20266;-67
2023/12/11 13:01:11;;;;;;;4.15;1.55;;;;;;;;;;4990632;28;20606;-65
2023/12/11 13:03:36;;;;;;;9.70;2.03;;;;;;;;;;4991386;28;20790;-66
2023/12/11 13:06:01;;;;;;;4.82;1.60;;;;;;;;;;4990673;28;20675;-66
2023/12/11 13:08:26;;;;;;;3.75;1.67;;;;;;;;;;4991631;28;20183;-66
2023/12/11 13:10:53;;;;;;;5.90;1.83;;;;;;;;;;4990693;28;20286;-66
2023/12/11 13:13:21;;;;;;;7.28;2.05;;;;;;;;;;4991736;28;20211;-66
2023/12/11 13:15:47;;;;;;;8.23;1.90;;;;;;;;;;4991393;28;20195;-66
2023/12/11 13:18:13;;;;;;;3.73;1.70;;;;;;;;;;4991974;28;20267;-66
2023/12/11 13:20:38;;;;;;;4.90;1.50;;;;;;;;;;4991398;28;20204;-66
2023/12/11 13:23:03;;;;;;;4.37;1.90;;;;;;;;;;4990653;28;20176;-65
2023/12/11 13:25:29;;;;;;;8.47;2.20;;;;;;;;;;4995194;28;20683;-66
2023/12/11 13:27:54;;;;;;;9.87;3.30;;;;;;;;;;4993685;28;20262;-65
2023/12/11 13:30:19;;;;;;;5.67;1.90;;;;;;;;;;4982358;28;20203;-66
2023/12/11 13:32:45;;;;;;;6.03;2.30;;;;;;;;;;4990796;28;20578;-66
2023/12/11 13:35:11;;;;;;;9.73;2.00;;;;;;;;;;4991698;28;20281;-66
2023/12/11 13:37:37;;;;;;;6.03;2.33;;;;;;;;;;4993860;28;20270;-66
2023/12/11 13:40:04;;;;;;;9.43;2.67;;;;;;;;;;4994650;28;20537;-66
2023/12/11 13:42:30;;;;;;;11.70;2.63;;;;;;;;;;4993298;28;20694;-66
2023/12/11 13:44:58;;;;;;;7.30;2.33;;;;;;;;;;4995113;28;20179;-64
2023/12/11 13:47:23;;;;;;;7.60;2.20;;;;;;;;;;4987871;28;20694;-65
2023/12/11 13:49:48;;;;;;;11.37;2.60;;;;;;;;;;4989524;28;20175;-66
2023/12/11 13:52:14;;;;;;;7.47;2.63;;;;;;;;;;4993897;28;20206;-66
2023/12/11 13:54:39;;;;;;;8.47;2.87;;;;;;;;;;4992167;28;20252;-66
2023/12/11 13:57:04;;;;;;;5.53;2.03;;;;;;;;;;4993824;28;20694;-66
2023/12/11 13:59:30;;;;;;;9.00;2.70;;;;;;;;;;4992592;28;20167;-67
2023/12/11 14:01:57;;;;;;;6.53;2.63;;;;;;;;;;4993274;28;20675;-66
2023/12/11 14:04:22;;;;;;;10.20;3.13;;;;;;;;;;4992940;28;20267;-65
2023/12/11 14:06:47;;;;;;;7.70;2.43;;;;;;;;;;4985369;28;20274;-66
2023/12/11 14:09:12;;;;;;;7.80;2.10;;;;;;;;;;4986278;28;20180;-65
2023/12/11 14:11:38;;;;;;;10.37;2.80;;;;;;;;;;4992513;28;20203;-66
2023/12/11 14:14:03;;;;;;;5.37;2.53;;;;;;;;;;4984984;28;20650;-66
2023/12/11 14:16:28;;;;;;;12.33;2.40;;;;;;;;;;4995463;28;20242;-66
2023/12/11 14:18:53;;;;;;;10.77;2.83;;;;;;;;;;4993444;28;20187;-66
2023/12/11 14:21:18;;;;;;;9.73;3.37;;;;;;;;;;4993060;28;20246;-67
2023/12/11 14:23:44;;;;;;;7.13;2.43;;;;;;;;;;4992528;28;20182;-65
2023/12/11 14:26:09;;;;;;;6.57;2.40;;;;;;;;;;4985190;28;20219;-66